Time;durP1;ratioP1;P1;durP2;ratioP2;P2;SDS_P1;SDS_P2;PMS_P1;PMS_P2;Temp;Humidity;BMP_temperature;BMP_pressure;BME280_temperature;BME280_humidity;BME280_pressure;Samples;Min_cycle;Max_cycle;Signal;HPM_P1;HPM_P2
2021/05/29 00:00:54;;;;;;;;;;;;;;;11.23;80.52;102121.47;6213983;28;19961;-71
2021/05/29 00:03:57;;;;;;;;;;;;;;;11.32;79.86;102124.97;6212798;28;19917;-71
2021/05/29 00:07:02;;;;;;;;;;;;;;;11.25;79.25;102130.31;6213060;28;20104;-71
2021/05/29 00:10:07;;;;;;;5.10;4.83;;;;;;;11.12;78.63;102130.16;6213587;28;19922;-70
2021/05/29 00:13:12;;;;;;;;;;;;;;;11.05;77.01;102126.50;6196781;28;19925;-71
2021/05/29 00:16:16;;;;;;;6.40;5.65;;;;;;;10.73;78.82;102145.13;6212305;28;20223;-70
2021/05/29 00:19:20;;;;;;;5.90;5.05;;;;;;;10.81;79.28;102143.13;6213425;28;20190;-70
2021/05/29 00:22:24;;;;;;;4.90;4.65;;;;;;;11.00;78.69;102137.13;6213576;28;20213;-71
2021/05/29 00:25:29;;;;;;;5.18;4.10;;;;;;;10.86;77.10;102143.41;6212263;28;20186;-70
2021/05/29 00:28:35;;;;;;;3.85;3.60;;;;;;;10.71;74.59;102145.28;6212211;28;20524;-70
2021/05/29 00:31:39;;;;;;;3.50;3.30;;;;;;;10.83;73.44;102157.47;6213587;28;20262;-71
2021/05/29 00:34:42;;;;;;;3.53;3.42;;;;;;;10.73;73.87;102145.13;6213133;28;20217;-71
2021/05/29 00:37:47;;;;;;;3.03;2.92;;;;;;;10.74;70.99;102161.31;6212190;28;20477;-71
2021/05/29 00:40:50;;;;;;;3.47;3.05;;;;;;;10.67;69.26;102168.53;6212236;28;20218;-71
2021/05/29 00:43:54;;;;;;;2.60;2.50;;;;;;;10.63;70.10;102167.25;6213428;28;20245;-71
2021/05/29 00:46:58;;;;;;;3.42;2.42;;;;;;;10.63;69.06;102164.50;6213038;28;20186;-71
2021/05/29 00:50:05;;;;;;;2.58;2.58;;;;;;;10.70;68.51;102168.19;6213264;28;20210;-71
2021/05/29 00:53:10;;;;;;;2.78;2.33;;;;;;;10.63;68.22;102167.25;6212021;28;20209;-71
2021/05/29 00:56:14;;;;;;;;;;;;;;;10.57;67.08;102167.97;6212209;28;20241;-70
2021/05/29 00:59:17;;;;;;;;;;;;;;;10.55;67.01;102176.31;6213356;28;20153;-70
2021/05/29 01:02:21;;;;;;;;;;;;;;;10.44;66.95;102173.19;6218028;28;19968;-71
2021/05/29 01:05:24;;;;;;;;;;;;;;;10.41;64.72;102168.09;6217941;28;19917;-71
2021/05/29 01:08:29;;;;;;;;;;;;;;;10.35;64.04;102169.69;6218189;28;19917;-71
2021/05/29 01:11:32;;;;;;;;;;;;;;;10.35;63.69;102190.69;6218079;28;19918;-71
2021/05/29 01:14:39;;;;;;;2.10;2.10;;;;;;;10.31;63.37;102186.59;6217238;28;19996;-71
2021/05/29 01:17:43;;;;;;;2.00;1.90;;;;;;;10.28;63.08;102184.25;6216068;28;20452;-71
2021/05/29 01:20:48;;;;;;;2.00;1.98;;;;;;;10.30;62.08;102187.63;6216789;28;20248;-71
2021/05/29 01:23:54;;;;;;;2.38;2.10;;;;;;;10.22;61.81;102190.44;6217272;28;20233;-71
2021/05/29 01:26:58;;;;;;;2.28;2.08;;;;;;;10.11;62.58;102182.63;6216895;28;20190;-71
2021/05/29 01:30:01;;;;;;;1.95;1.90;;;;;;;10.19;62.71;102183.47;6216771;28;20186;-71
2021/05/29 01:33:09;;;;;;;1.80;1.80;;;;;;;10.13;62.79;102189.66;6215769;28;20528;-71
2021/05/29 01:36:13;;;;;;;2.13;1.80;;;;;;;10.18;62.39;102189.09;6216913;28;20218;-71
2021/05/29 01:39:17;;;;;;;1.70;1.70;;;;;;;10.14;61.08;102182.31;6216590;28;20222;-71
2021/05/29 01:42:21;;;;;;;1.60;1.60;;;;;;;10.08;61.72;102179.25;6216443;28;20306;-71
2021/05/29 01:45:26;;;;;;;1.73;1.70;;;;;;;10.11;61.11;102183.50;6215452;28;20187;-71
2021/05/29 01:48:34;;;;;;;1.63;1.63;;;;;;;10.05;61.31;102190.53;6216247;28;20233;-71
2021/05/29 01:51:38;;;;;;;2.22;2.13;;;;;;;10.03;61.02;102198.03;6216371;28;20194;-71
2021/05/29 01:54:42;;;;;;;1.77;1.77;;;;;;;9.95;61.35;102195.34;6216202;28;20253;-71
2021/05/29 01:57:46;;;;;;;2.67;1.60;;;;;;;9.92;61.54;102203.88;6215210;28;20190;-71
2021/05/29 02:00:50;;;;;;;1.65;1.65;;;;;;;9.90;62.11;102197.78;6214969;28;20289;-71
2021/05/29 02:03:54;;;;;;;1.80;1.70;;;;;;;9.94;60.70;102199.09;6215165;28;20208;-71
2021/05/29 02:06:58;;;;;;;2.17;1.98;;;;;;;9.87;61.22;102203.59;6215970;28;20186;-71
2021/05/29 02:10:04;;;;;;;1.67;1.67;;;;;;;9.99;60.77;102207.59;6215941;28;20187;-71
2021/05/29 02:13:11;;;;;;;1.63;1.63;;;;;;;10.01;60.43;102210.97;6215485;28;20225;-70
2021/05/29 02:16:15;;;;;;;2.13;1.65;;;;;;;9.92;60.47;102214.78;6215450;28;20198;-70
2021/05/29 02:19:19;;;;;;;2.17;1.48;;;;;;;9.95;61.31;102211.72;6214752;28;20194;-70
2021/05/29 02:22:22;;;;;;;2.08;1.80;;;;;;;9.97;61.17;102226.00;6215861;28;20218;-71
2021/05/29 02:25:27;;;;;;;1.85;1.85;;;;;;;9.97;61.52;102231.47;6215596;28;20186;-70
2021/05/29 02:28:31;;;;;;;1.83;1.60;;;;;;;9.97;61.60;102222.44;6215451;28;20225;-70
2021/05/29 02:31:35;;;;;;;2.08;1.92;;;;;;;9.97;61.65;102236.91;6214424;28;20477;-70
2021/05/29 02:34:39;;;;;;;1.67;1.58;;;;;;;10.22;63.59;102240.38;6214277;28;20478;-70
2021/05/29 02:37:42;;;;;;;3.53;1.88;;;;;;;10.23;63.90;102249.41;6214205;28;20454;-70
2021/05/29 02:40:47;;;;;;;1.88;1.75;;;;;;;10.24;63.56;102248.38;6213941;28;20493;-70
2021/05/29 02:43:51;;;;;;;2.00;1.90;;;;;;;10.17;63.63;102240.06;6215049;28;20190;-71
2021/05/29 02:46:55;;;;;;;2.03;1.92;;;;;;;10.30;63.30;102253.09;6214034;28;20526;-70
2021/05/29 02:49:59;;;;;;;2.45;2.35;;;;;;;10.35;64.64;102253.44;6213889;28;20496;-70
2021/05/29 02:53:04;;;;;;;2.50;2.30;;;;;;;10.25;63.46;102256.38;6215259;28;20222;-70
2021/05/29 02:56:08;;;;;;;1.83;1.73;;;;;;;10.32;62.94;102251.91;6215038;28;20316;-71
2021/05/29 02:59:12;;;;;;;1.90;1.80;;;;;;;10.27;62.82;102257.03;6214579;28;20186;-71
2021/05/29 03:02:16;;;;;;;2.45;1.75;;;;;;;10.28;63.07;102260.63;6213477;28;20559;-70
2021/05/29 03:05:20;;;;;;;2.00;1.88;;;;;;;10.16;62.71;102256.63;6213900;28;20265;-71
2021/05/29 03:08:24;;;;;;;1.98;1.90;;;;;;;10.33;63.81;102269.09;6214177;28;20186;-71
2021/05/29 03:11:30;;;;;;;1.70;1.70;;;;;;;10.34;63.76;102265.38;6213185;28;20194;-71
2021/05/29 03:14:34;;;;;;;1.80;1.80;;;;;;;10.08;62.51;102239.25;6214480;28;20249;-70
2021/05/29 03:17:38;;;;;;;1.80;1.80;;;;;;;10.27;63.51;102275.31;6213117;28;20214;-71
2021/05/29 03:20:42;;;;;;;2.00;1.88;;;;;;;10.24;62.36;102275.66;6214056;28;20186;-71
2021/05/29 03:23:45;;;;;;;2.38;1.85;;;;;;;10.16;63.41;102275.72;6212406;28;20403;-70
2021/05/29 03:26:50;;;;;;;1.67;1.67;;;;;;;10.26;63.10;102279.06;6214350;28;20334;-71
2021/05/29 03:29:54;;;;;;;1.77;1.77;;;;;;;10.26;63.42;102282.63;6213415;28;20186;-70
2021/05/29 03:32:59;;;;;;;2.75;1.83;;;;;;;10.35;64.45;102284.25;6212981;28;20384;-71
2021/05/29 03:36:03;;;;;;;1.70;1.70;;;;;;;10.36;63.98;102285.97;6213255;28;20186;-70
2021/05/29 03:39:07;;;;;;;2.45;1.55;;;;;;;10.43;63.19;102269.72;6214105;28;20186;-71
2021/05/29 03:42:11;;;;;;;1.52;1.52;;;;;;;10.35;66.16;102283.44;6212871;28;20571;-70
2021/05/29 03:45:17;;;;;;;4.25;2.00;;;;;;;10.35;65.69;102283.44;6214062;28;20186;-71
2021/05/29 03:48:21;;;;;;;1.90;1.90;;;;;;;10.38;65.65;102288.50;6213754;28;20232;-71
2021/05/29 03:51:26;;;;;;;1.80;1.80;;;;;;;10.13;65.95;102292.41;6213644;28;20192;-70
2021/05/29 03:54:30;;;;;;;1.75;1.75;;;;;;;10.32;64.25;102295.56;6213961;28;20186;-71
2021/05/29 03:57:35;;;;;;;1.70;1.70;;;;;;;10.23;63.92;102295.78;6213516;28;20186;-71
2021/05/29 04:00:38;;;;;;;1.67;1.67;;;;;;;10.43;63.84;102308.78;6212490;28;20240;-71
2021/05/29 04:03:42;;;;;;;1.88;1.80;;;;;;;10.46;62.73;102302.09;6213574;28;20233;-70
2021/05/29 04:06:46;;;;;;;1.63;1.60;;;;;;;10.43;62.79;102310.66;6214008;28;20232;-70
2021/05/29 04:09:49;;;;;;;;;;;;;;;10.48;63.29;102310.94;6213657;28;20190;-70
2021/05/29 04:12:54;;;;;;;;;;;;;;;10.48;63.79;102317.28;6213860;28;19949;-71
2021/05/29 04:15:57;;;;;;;;;;;;;;;10.48;64.03;102321.88;6214104;28;19945;-71
2021/05/29 04:19:00;;;;;;;;;;;;;;;10.62;65.11;102329.28;6214158;28;19952;-72
2021/05/29 04:22:04;;;;;;;;;;;;;;;10.52;66.05;102317.78;6212670;28;20172;-70
2021/05/29 04:25:09;;;;;;;;;;;;;;;10.59;65.73;102319.59;6213627;28;19917;-73
2021/05/29 04:28:17;;;;;;;;;;;;;;;10.57;63.87;102323.53;6214022;28;19917;-71
2021/05/29 04:31:21;;;;;;;;;;;;;;;10.53;62.62;102330.38;6212596;28;20256;-71
2021/05/29 04:34:24;;;;;;;;;;;;;;;10.57;64.33;102337.19;6230283;28;19953;-71
2021/05/29 04:37:27;;;;;;;;;;;;;;;10.62;64.01;102337.47;6217486;28;19918;-71
2021/05/29 04:40:31;;;;;;;;;;;;;;;10.63;62.95;102336.47;6218627;28;19922;-71
2021/05/29 04:43:36;;;;;;;1.70;1.70;;;;;;;10.83;65.05;102343.13;6216886;28;20267;-71
2021/05/29 04:46:40;;;;;;;3.15;1.90;;;;;;;10.78;64.45;102351.03;6216845;28;20375;-76
2021/05/29 04:49:44;;;;;;;1.90;1.80;;;;;;;10.86;65.44;102347.38;6216610;28;20361;-71
2021/05/29 04:52:48;;;;;;;2.17;2.08;;;;;;;10.83;64.30;102358.66;6216660;28;20457;-71
2021/05/29 04:55:53;;;;;;;1.65;1.60;;;;;;;10.84;63.55;102363.94;6217397;28;20187;-71
2021/05/29 04:58:57;;;;;;;1.92;1.83;;;;;;;10.96;62.37;102359.75;6216194;28;20524;-70
2021/05/29 05:02:01;;;;;;;2.15;2.05;;;;;;;11.05;62.70;102358.66;6216432;28;20253;-72
2021/05/29 05:05:06;;;;;;;2.40;2.30;;;;;;;11.16;64.80;102365.56;6217158;28;20238;-70
2021/05/29 05:08:11;;;;;;;2.33;1.80;;;;;;;11.02;62.45;102371.81;6217498;28;20209;-70
2021/05/29 05:11:15;;;;;;;1.80;1.70;;;;;;;11.12;62.55;102376.00;6216165;28;20412;-71
2021/05/29 05:14:20;;;;;;;2.03;1.92;;;;;;;11.27;61.47;102373.31;6217540;28;20190;-71
2021/05/29 05:17:23;;;;;;;1.65;1.65;;;;;;;11.35;62.08;102375.13;6217157;28;20249;-71
2021/05/29 05:20:27;;;;;;;3.05;2.20;;;;;;;11.26;62.61;102388.88;6217235;28;20261;-70
2021/05/29 05:23:31;;;;;;;2.00;1.90;;;;;;;11.48;60.01;102386.28;6216684;28;20273;-70
2021/05/29 05:26:35;;;;;;;1.60;1.60;;;;;;;11.60;60.30;102385.66;6216688;28;20187;-71
2021/05/29 05:29:39;;;;;;;1.77;1.77;;;;;;;11.66;59.96;102395.81;6215637;28;20381;-71
2021/05/29 05:32:44;;;;;;;2.25;2.03;;;;;;;11.96;60.17;102402.22;6216445;28;20228;-70
2021/05/29 05:35:49;;;;;;;1.85;1.80;;;;;;;12.13;59.86;102411.91;6215445;28;20497;-71
2021/05/29 05:38:52;;;;;;;1.90;1.80;;;;;;;12.34;60.34;102394.72;6215476;28;20493;-71
2021/05/29 05:41:56;;;;;;;2.83;2.17;;;;;;;12.45;59.30;102403.28;6216608;28;20186;-71
2021/05/29 05:45:02;;;;;;;2.60;1.75;;;;;;;12.60;59.41;102416.97;6215523;28;20193;-71
2021/05/29 05:48:07;;;;;;;2.15;1.83;;;;;;;12.73;57.43;102416.25;6215706;28;20193;-71
2021/05/29 05:51:12;;;;;;;1.75;1.75;;;;;;;12.84;57.19;102418.50;6215210;28;20481;-71
2021/05/29 05:54:16;;;;;;;2.30;2.10;;;;;;;13.03;57.85;102417.84;6216504;28;20213;-71
2021/05/29 05:57:20;;;;;;;1.73;1.70;;;;;;;13.03;58.43;102417.84;6215624;28;19981;-71
2021/05/29 06:00:25;;;;;;;1.58;1.50;;;;;;;13.07;57.73;102425.53;6214869;28;20229;-70
2021/05/29 06:03:29;;;;;;;1.98;1.88;;;;;;;13.34;57.28;102421.16;6216218;28;20222;-71
2021/05/29 06:06:33;;;;;;;1.80;1.80;;;;;;;13.51;55.27;102421.69;6198671;28;20301;-71
2021/05/29 06:09:37;;;;;;;2.00;1.90;;;;;;;13.40;54.22;102425.84;6216211;28;20186;-71
2021/05/29 06:12:45;;;;;;;2.40;1.80;;;;;;;13.50;54.24;102431.84;6215988;28;20237;-72
2021/05/29 06:19:15;;;;;;;1.90;1.80;;;;;;;13.71;53.75;102430.97;6215932;28;20253;-71
2021/05/29 06:22:23;;;;;;;3.03;2.00;;;;;;;13.93;53.88;102437.22;6215827;28;20187;-71
2021/05/29 06:25:26;;;;;;;1.90;1.90;;;;;;;13.78;51.77;102407.16;6215416;28;20186;-70
2021/05/29 06:28:30;;;;;;;3.35;1.90;;;;;;;13.79;52.24;102437.13;6215244;28;20187;-71
2021/05/29 06:31:35;;;;;;;2.38;1.95;;;;;;;13.71;51.70;102445.50;6215124;28;20186;-72
2021/05/29 06:34:39;;;;;;;2.42;2.33;;;;;;;13.84;51.19;102443.94;6215388;28;20190;-71
2021/05/29 06:37:43;;;;;;;2.33;2.13;;;;;;;13.99;52.30;102441.94;6215113;28;20186;-71
2021/05/29 06:40:47;;;;;;;2.20;2.10;;;;;;;13.94;51.58;102452.66;6215127;28;20221;-72
2021/05/29 06:43:51;;;;;;;1.77;1.77;;;;;;;14.01;50.60;102445.31;6214561;28;20293;-71
2021/05/29 06:46:56;;;;;;;2.53;2.22;;;;;;;14.14;50.35;102461.88;6215035;28;20186;-70
2021/05/29 06:49:59;;;;;;;4.00;1.80;;;;;;;14.13;49.88;102443.69;6213935;28;20261;-71
2021/05/29 06:53:09;;;;;;;2.40;2.03;;;;;;;14.15;49.30;102447.13;6214724;28;20197;-72
2021/05/29 06:59:34;;;;;;;2.03;1.92;;;;;;;14.18;50.38;102438.44;6212595;28;20421;-72
2021/05/29 07:02:39;;;;;;;2.65;1.80;;;;;;;14.27;49.98;102450.97;6213326;28;20260;-71
2021/05/29 07:05:43;;;;;;;1.65;1.58;;;;;;;14.38;49.84;102458.66;6213302;28;20316;-71
2021/05/29 07:08:47;;;;;;;3.60;1.90;;;;;;;14.37;49.06;102456.97;6213782;28;20186;-70
2021/05/29 07:11:51;;;;;;;2.63;1.95;;;;;;;14.29;48.93;102454.38;6213094;28;20193;-71
2021/05/29 07:14:55;;;;;;;2.38;2.28;;;;;;;14.34;49.53;102465.63;6214382;28;20236;-71
2021/05/29 07:18:05;;;;;;;2.15;2.05;;;;;;;14.48;50.30;102464.66;6213157;28;20535;-71
2021/05/29 07:21:09;;;;;;;2.00;1.90;;;;;;;14.53;49.39;102462.16;6214290;28;20224;-72
2021/05/29 07:24:13;;;;;;;1.92;1.83;;;;;;;14.62;49.78;102458.16;6214309;28;20221;-71
2021/05/29 07:27:17;;;;;;;1.92;1.83;;;;;;;14.61;51.47;102464.69;6213650;28;20224;-70
2021/05/29 07:30:21;;;;;;;2.15;2.05;;;;;;;14.64;50.40;102469.78;6213706;28;20233;-71
2021/05/29 07:33:27;;;;;;;1.90;1.80;;;;;;;14.64;49.19;102467.03;6213719;28;20229;-71
2021/05/29 07:36:30;;;;;;;3.30;2.10;;;;;;;14.71;48.68;102470.69;6196397;28;20233;-71
2021/05/29 07:39:34;;;;;;;2.17;2.08;;;;;;;14.72;49.14;102477.84;6212460;28;20489;-71
2021/05/29 07:42:38;;;;;;;2.47;2.13;;;;;;;14.93;50.21;102472.22;6213050;28;20194;-71
2021/05/29 07:45:42;;;;;;;2.13;2.03;;;;;;;15.00;49.01;102484.09;6227081;28;20397;-71
2021/05/29 07:48:50;;;;;;;2.13;1.90;;;;;;;14.99;49.34;102479.66;6195384;28;20513;-72
2021/05/29 07:51:54;;;;;;;6.50;2.20;;;;;;;15.05;49.12;102481.56;6212269;28;20592;-73
2021/05/29 07:54:58;;;;;;;2.15;2.05;;;;;;;15.14;48.54;102482.22;6212972;28;20249;-72
2021/05/29 07:58:01;;;;;;;3.95;1.90;;;;;;;15.26;46.89;102491.56;6212220;28;20209;-72
2021/05/29 08:01:05;;;;;;;4.78;2.00;;;;;;;15.24;47.52;102498.31;6212853;28;20190;-72
2021/05/29 08:04:12;;;;;;;2.25;2.10;;;;;;;15.31;46.06;102489.03;6211712;28;20226;-72
2021/05/29 08:07:16;;;;;;;1.70;1.70;;;;;;;15.26;44.86;102498.97;6213295;28;20258;-72
2021/05/29 08:10:20;;;;;;;2.05;1.83;;;;;;;15.24;45.18;102495.56;6211454;28;20186;-72
2021/05/29 08:13:24;;;;;;;1.73;1.52;;;;;;;15.34;45.38;102504.28;6213526;28;20260;-72
2021/05/29 08:16:28;;;;;;;4.47;2.00;;;;;;;15.21;44.48;102505.09;6213032;28;20186;-72
2021/05/29 08:19:33;;;;;;;2.58;2.05;;;;;;;15.31;45.29;102504.69;6212020;28;20253;-72
2021/05/29 08:22:36;;;;;;;2.30;2.20;;;;;;;15.36;42.84;102511.25;6211673;28;20186;-71
2021/05/29 08:25:40;;;;;;;4.05;2.67;;;;;;;15.26;41.50;102512.72;6211660;28;20310;-71
2021/05/29 08:28:44;;;;;;;2.20;2.10;;;;;;;15.28;39.66;102511.44;6211657;28;20481;-71
2021/05/29 08:31:48;;;;;;;2.50;2.40;;;;;;;15.31;41.22;102510.19;6211737;28;20209;-72
2021/05/29 08:34:53;;;;;;;2.85;1.88;;;;;;;15.38;40.52;102516.56;6211588;28;20245;-72
2021/05/29 08:37:57;;;;;;;1.83;1.83;;;;;;;15.03;39.14;102519.41;6212438;28;20191;-72
2021/05/29 08:41:01;;;;;;;1.75;1.65;;;;;;;14.96;40.89;102512.19;6211622;28;20366;-72
2021/05/29 08:44:09;;;;;;;2.45;2.35;;;;;;;15.06;40.94;102520.91;6211419;28;20213;-72
2021/05/29 08:47:13;;;;;;;3.15;2.13;;;;;;;14.92;41.03;102522.75;6211629;28;20392;-72
2021/05/29 08:50:19;;;;;;;2.10;1.95;;;;;;;14.96;40.83;102524.03;6194270;28;20206;-72
2021/05/29 08:53:24;;;;;;;1.80;1.70;;;;;;;14.40;42.78;102418.13;6211834;28;20225;-73
2021/05/29 08:56:28;;;;;;;2.15;1.85;;;;;;;15.12;42.23;102522.00;6212115;28;20204;-71
2021/05/29 08:59:32;;;;;;;2.35;2.25;;;;;;;15.22;42.75;102516.94;6212210;28;20186;-72
2021/05/29 09:03:01;;;;;;;2.40;2.25;;;;;;;15.11;42.62;102518.38;6211281;28;20209;-71
2021/05/29 09:06:06;;;;;;;2.30;2.30;;;;;;;15.13;44.23;102523.66;6211217;28;20344;-72
2021/05/29 09:09:14;;;;;;;2.45;2.20;;;;;;;15.19;42.05;102525.59;6212025;28;20209;-71
2021/05/29 09:12:18;;;;;;;2.15;2.05;;;;;;;15.29;42.99;102528.78;6212291;28;20186;-71
2021/05/29 09:15:22;;;;;;;2.10;2.00;;;;;;;15.25;43.84;102522.03;6211994;28;20301;-71
2021/05/29 09:18:32;;;;;;;2.40;2.05;;;;;;;15.43;43.33;102519.53;6210806;28;20465;-71
2021/05/29 09:21:37;;;;;;;9.10;1.90;;;;;;;15.46;42.48;102524.63;6213151;28;20217;-72
2021/05/29 09:24:40;;;;;;;2.72;2.00;;;;;;;15.48;42.76;102528.03;6216268;28;20241;-72
2021/05/29 09:27:53;;;;;;;2.25;1.90;;;;;;;15.48;43.25;102525.28;6216369;28;20265;-70
2021/05/29 09:30:56;;;;;;;3.78;2.00;;;;;;;15.45;42.96;102515.56;6216371;28;20187;-71
2021/05/29 09:34:00;;;;;;;2.10;1.95;;;;;;;15.37;44.05;102520.34;6215340;28;20221;-71
2021/05/29 09:37:08;;;;;;;2.20;2.10;;;;;;;15.48;44.20;102526.16;6215195;28;20393;-72
2021/05/29 09:40:12;;;;;;;1.92;1.88;;;;;;;15.54;44.25;102532.69;6215961;28;20193;-71
2021/05/29 09:43:16;;;;;;;2.17;1.95;;;;;;;15.39;42.88;102518.25;6215541;28;20217;-71
2021/05/29 09:46:19;;;;;;;2.38;2.10;;;;;;;15.41;43.24;102529.88;6214569;28;20572;-71
2021/05/29 09:49:44;;;;;;;1.95;1.95;;;;;;;15.42;44.83;102534.34;6214918;28;20340;-71
2021/05/29 09:52:49;;;;;;;2.05;1.92;;;;;;;15.34;43.69;102538.13;6215780;28;20234;-72
2021/05/29 09:55:53;;;;;;;2.25;2.15;;;;;;;15.49;43.35;102540.72;6215435;28;20224;-71
2021/05/29 09:59:00;;;;;;;2.78;1.83;;;;;;;15.55;42.97;102531.66;6214940;28;20193;-71
2021/05/29 10:02:10;;;;;;;3.30;2.47;;;;;;;15.65;43.24;102540.34;6197883;28;20246;-71
2021/05/29 10:05:27;;;;;;;2.35;2.20;;;;;;;15.79;43.40;102542.06;6214209;28;20312;-71
2021/05/29 10:08:32;;;;;;;2.42;2.22;;;;;;;15.70;43.38;102532.31;6215029;28;20218;-72
2021/05/29 10:11:37;;;;;;;2.10;1.90;;;;;;;15.76;43.62;102536.13;6215369;28;20187;-73
2021/05/29 10:14:41;;;;;;;2.28;2.17;;;;;;;15.77;42.98;102535.91;6214841;28;20222;-72
2021/05/29 10:17:46;;;;;;;3.60;2.30;;;;;;;15.86;43.50;102534.66;6214185;28;20453;-72
2021/05/29 10:20:51;;;;;;;3.25;2.25;;;;;;;15.92;42.85;102525.53;6215347;28;20190;-75
2021/05/29 10:23:57;;;;;;;1.95;1.85;;;;;;;15.91;42.72;102539.50;6215246;28;20187;-72
2021/05/29 10:27:07;;;;;;;1.80;1.80;;;;;;;15.98;42.42;102527.44;6215051;28;20187;-72
2021/05/29 10:30:14;;;;;;;2.10;2.00;;;;;;;16.03;42.78;102527.66;6214098;28;20383;-71
2021/05/29 10:33:19;;;;;;;2.67;2.13;;;;;;;16.08;41.56;102530.63;6213593;28;20417;-72
2021/05/29 10:36:44;;;;;;;1.80;1.80;;;;;;;16.03;42.52;102533.16;6197485;28;20205;-72
2021/05/29 10:39:48;;;;;;;2.85;2.25;;;;;;;16.03;42.65;102538.66;6213829;28;20378;-72
2021/05/29 10:43:11;;;;;;;2.95;1.90;;;;;;;16.11;41.89;102524.69;6214648;28;20186;-71
2021/05/29 10:46:15;;;;;;;2.58;2.38;;;;;;;16.19;42.40;102527.22;6214467;28;20214;-70
2021/05/29 10:49:50;;;;;;;3.28;2.00;;;;;;;16.29;42.05;102519.38;6214753;28;20218;-71
2021/05/29 10:52:53;;;;;;;3.50;2.60;;;;;;;16.29;42.86;102522.13;6214383;28;20187;-71
2021/05/29 10:56:24;;;;;;;2.38;2.15;;;;;;;16.45;41.55;102531.00;6214425;28;20257;-71
2021/05/29 10:59:34;;;;;;;2.42;2.05;;;;;;;16.56;42.22;102522.94;6213393;28;20395;-71
2021/05/29 11:02:38;;;;;;;5.03;2.20;;;;;;;16.60;42.25;102517.84;6214092;28;20241;-71
2021/05/29 11:05:42;;;;;;;2.20;2.00;;;;;;;16.53;41.37;102528.06;6213520;28;20320;-72
2021/05/29 11:08:58;;;;;;;2.05;1.95;;;;;;;16.59;41.06;102529.94;6213862;28;20186;-72
2021/05/29 11:12:03;;;;;;;2.20;2.20;;;;;;;16.69;40.91;102522.09;6214145;28;20195;-72
2021/05/29 11:15:07;;;;;;;7.00;2.20;;;;;;;16.64;40.91;102527.41;6214199;28;20258;-72
2021/05/29 11:18:15;;;;;;;5.78;2.17;;;;;;;16.69;40.45;102511.06;6212952;28;20186;-71
2021/05/29 11:21:19;;;;;;;2.35;2.15;;;;;;;16.72;41.46;102527.13;6213987;28;20229;-72
2021/05/29 11:24:23;;;;;;;3.35;2.35;;;;;;;16.80;40.58;102525.00;6213890;28;20187;-72
2021/05/29 11:27:30;;;;;;;2.67;2.03;;;;;;;16.86;39.84;102513.09;6212629;28;20192;-72
2021/05/29 11:30:36;;;;;;;8.82;2.28;;;;;;;17.03;38.80;102530.00;6213678;28;20186;-71
2021/05/29 11:33:53;;;;;;;2.97;2.30;;;;;;;16.95;39.47;102526.66;6213674;28;20202;-71
2021/05/29 11:37:00;;;;;;;4.20;2.10;;;;;;;17.03;38.97;102513.44;6214092;28;20251;-71
2021/05/29 11:40:05;;;;;;;2.00;2.00;;;;;;;17.07;39.65;102524.88;6212597;28;20240;-72
2021/05/29 11:43:11;;;;;;;2.70;2.50;;;;;;;17.02;39.52;102524.72;6212164;28;20193;-72
2021/05/29 11:46:16;;;;;;;3.20;2.95;;;;;;;17.02;39.25;102521.94;6213367;28;20250;-71
2021/05/29 11:49:20;;;;;;;2.40;2.20;;;;;;;17.06;39.59;102524.03;6213411;28;20186;-72
2021/05/29 11:52:24;;;;;;;1.90;1.80;;;;;;;17.14;39.27;102521.03;6213024;28;20257;-72
2021/05/29 11:55:27;;;;;;;4.65;1.90;;;;;;;17.28;38.03;102522.63;6212731;28;20194;-72
2021/05/29 11:58:50;;;;;;;2.20;2.03;;;;;;;17.33;38.47;102511.78;6213098;28;20186;-72
2021/05/29 12:01:55;;;;;;;3.85;2.10;;;;;;;17.45;38.64;102523.84;6213015;28;20241;-72
2021/05/29 12:04:59;;;;;;;5.28;2.33;;;;;;;17.58;37.74;102527.59;6212086;28;20265;-71
2021/05/29 12:08:04;;;;;;;2.30;2.20;;;;;;;17.47;38.30;102526.34;6212111;28;20479;-72
2021/05/29 12:11:08;;;;;;;1.90;1.80;;;;;;;17.28;38.70;102528.16;6211881;28;20186;-70
2021/05/29 12:14:15;;;;;;;2.83;2.00;;;;;;;17.43;37.59;102525.97;6213303;28;20194;-71
2021/05/29 12:17:19;;;;;;;8.43;2.40;;;;;;;17.10;37.22;102441.72;6212052;28;20214;-71
2021/05/29 12:20:25;;;;;;;3.05;2.05;;;;;;;17.63;37.23;102525.00;6211807;28;20532;-71
2021/05/29 12:23:29;;;;;;;5.05;2.20;;;;;;;17.78;37.59;102529.16;6213147;28;20292;-71
2021/05/29 12:26:33;;;;;;;3.83;2.30;;;;;;;17.55;37.40;102530.78;6211922;28;20273;-72
2021/05/29 12:29:40;;;;;;;5.90;2.33;;;;;;;17.76;37.45;102533.19;6212927;28;20225;-72
2021/05/29 12:32:45;;;;;;;2.17;1.98;;;;;;;17.78;38.29;102536.56;6213196;28;20186;-72
2021/05/29 12:36:05;;;;;;;5.90;2.33;;;;;;;17.62;36.42;102534.34;6212919;28;20249;-72
2021/05/29 12:39:08;;;;;;;2.20;1.80;;;;;;;17.52;36.73;102535.69;6213165;28;20254;-73
2021/05/29 12:42:33;;;;;;;5.68;1.98;;;;;;;17.56;37.04;102532.50;6212883;28;20218;-71
2021/05/29 12:45:41;;;;;;;4.72;2.42;;;;;;;17.50;37.30;102518.50;6211450;28;20454;-71
2021/05/29 12:49:01;;;;;;;6.45;2.58;;;;;;;17.65;35.48;102544.94;6212684;28;20218;-71
2021/05/29 12:52:21;;;;;;;2.85;2.03;;;;;;;17.73;36.40;102536.41;6212422;28;20253;-71
2021/05/29 12:55:25;;;;;;;3.35;2.70;;;;;;;17.94;36.80;102547.09;6212858;28;20191;-72
2021/05/29 12:58:29;;;;;;;3.13;2.45;;;;;;;17.72;35.79;102545.78;6217217;28;20194;-72
2021/05/29 13:01:53;;;;;;;2.08;1.75;;;;;;;17.74;36.80;102544.47;6216518;28;20186;-71
2021/05/29 13:08:26;;;;;;;2.63;1.77;;;;;;;17.75;37.08;102551.69;6194942;28;20202;-71
2021/05/29 13:11:32;;;;;;;2.10;2.05;;;;;;;17.74;36.05;102546.38;6216984;28;20187;-72
2021/05/29 13:14:37;;;;;;;4.13;2.17;;;;;;;17.89;35.75;102541.38;6217026;28;20262;-72
2021/05/29 13:17:41;;;;;;;2.92;1.90;;;;;;;18.09;36.37;102547.59;6217199;28;20229;-72
2021/05/29 13:20:46;;;;;;;2.13;1.92;;;;;;;18.07;35.86;102544.22;6216606;28;20186;-72
2021/05/29 13:23:49;;;;;;;3.35;2.30;;;;;;;18.09;36.00;102542.91;6215321;28;20501;-72
2021/05/29 13:26:53;;;;;;;2.45;1.80;;;;;;;18.17;36.21;102544.53;6216183;28;20286;-72
2021/05/29 13:29:58;;;;;;;2.33;2.13;;;;;;;18.19;36.17;102553.44;6215379;28;20186;-72
2021/05/29 13:33:04;;;;;;;3.15;1.70;;;;;;;18.42;35.04;102553.66;6216166;28;20187;-72
2021/05/29 13:36:09;;;;;;;;;;;;;;;19.73;33.68;102546.50;6215888;28;20352;-71
2021/05/29 13:39:15;;;;;;;4.32;1.90;;;;;;;20.23;33.08;102551.66;6216295;28;20219;-72
2021/05/29 13:42:19;;;;;;;1.80;1.73;;;;;;;19.61;33.72;102553.94;6216259;28;20205;-71
2021/05/29 13:45:26;;;;;;;1.67;1.67;;;;;;;19.49;32.79;102561.34;6198829;28;20209;-71
2021/05/29 13:48:31;;;;;;;2.10;1.90;;;;;;;20.11;32.05;102564.69;6216215;28;20187;-71
2021/05/29 13:51:37;;;;;;;3.88;2.15;;;;;;;20.82;30.42;102556.97;6216398;28;20053;-72
2021/05/29 13:54:41;;;;;;;3.63;1.98;;;;;;;20.99;29.54;102563.44;6216202;28;20093;-72
2021/05/29 13:57:45;;;;;;;1.50;1.50;;;;;;;20.38;29.78;102554.84;6215788;28;20199;-71
2021/05/29 14:00:48;;;;;;;4.10;1.80;;;;;;;20.08;31.44;102565.16;6214882;28;20424;-72
2021/05/29 14:03:53;;;;;;;1.92;1.80;;;;;;;19.90;31.48;102569.66;6216278;28;20262;-72
2021/05/29 14:06:57;;;;;;;7.28;2.50;;;;;;;19.32;31.45;102571.34;6213891;28;20249;-71
2021/05/29 14:10:01;;;;;;;1.85;1.75;;;;;;;19.42;33.06;102577.22;6215931;28;20264;-72
2021/05/29 14:13:05;;;;;;;3.58;1.80;;;;;;;19.01;31.96;102577.06;6214684;28;20249;-72
2021/05/29 14:16:13;;;;;;;1.90;1.80;;;;;;;18.99;33.24;102577.31;6215530;28;20190;-71
2021/05/29 14:19:18;;;;;;;2.28;2.10;;;;;;;19.14;33.19;102574.16;6215085;28;20192;-71
2021/05/29 14:22:22;;;;;;;2.78;2.00;;;;;;;18.92;32.52;102581.25;6215473;28;20197;-72
2021/05/29 14:25:26;;;;;;;6.82;2.88;;;;;;;18.98;33.19;102574.75;6215195;28;20233;-71
2021/05/29 14:28:29;;;;;;;2.03;1.98;;;;;;;18.90;33.06;102580.63;6214141;28;20213;-71
2021/05/29 14:31:34;;;;;;;2.83;1.73;;;;;;;18.55;32.78;102592.25;6214117;28;20497;-71
2021/05/29 14:34:39;;;;;;;2.38;2.00;;;;;;;18.60;33.21;102592.41;6213795;28;20186;-72
2021/05/29 14:37:43;;;;;;;1.70;1.70;;;;;;;18.70;32.54;102595.50;6214052;28;20229;-72
2021/05/29 14:40:47;;;;;;;3.80;2.15;;;;;;;19.19;32.59;102600.03;6214119;28;20269;-72